Disclaimer

Please do not use the information listed here in-flight or in-navigation, as they are not provided to us by the airports but are provided by volunteers, so they might be outdated.

Search


Regions


Airport information page

Radio informations:
Tower (TWR) - 118.1 MHz
Ground (GND) - 121.9 MHz
Automatic Terminal Information Service (ATIS) - 128.8 MHz
Approach (APP) - 118.1 MHz

Airport informations:
Latitude: 17° 33' 13.50" S
Longitude: 149° 36' 26.05" W
Elevation: 5 feet - 2 meters
Operating hours: 24 hour operations
Operating agency: Civil government, landing fees and diplomatic clearance may be required
Timezone: UTC-10
Fuel: 115/145 octane gasoline, leaded, MIL-L-5572F (PURPLE)

100/130 octane gasoline, leaded, MIL-L-5572F (GREEN)

Runway information:
04/22 - 11360 x 148 feet< - >3463 x 45 meters

Recent METARs:
NTAA 142030Z 07016KT 9999 SCT016TCU SCT230 29/23 Q1012 NOSIG
NTAA 142100Z 07014KT 9999 SCT016TCU SCT046 30/23 Q1012 NOSIG
NTAA 142130Z 06015KT 9999 SCT016TCU SCT046 30/23 Q1012 NOSIG

Airport on the map: